X  Zatvori METAR podaci zračne luke     LDPL Pula Airport
Temperatura
0°C Temperatura
-2°C Točka rosišta
87% Vlaga



Vjetar
2 KM/S
1 MPS
0 M/S
1 Čvorovi



Tišina
Sjever
Trenutna situacija

Vedro Vedro
Tlak zraka 1014.92 (hPa) - 29.97 (inHg)
Vidljivost 6.2 (milje) - 10 (km)
Zračna luka
Kôd zračne luke LDPL

Lokacija: Pula Airport
Udaljenost: 39 (km)

Metar:
LDPL 010030Z VRB01KT CAVOK 00/M02 Q1015

Vrijeme: 01-12-2021 01:30 CET